Time;durP1;ratioP1;P1;durP2;ratioP2;P2;SDS_P1;SDS_P2;PMS_P1;PMS_P2;Temp;Humidity;BMP_temperature;BMP_pressure;BME280_temperature;BME280_humidity;BME280_pressure;Samples;Min_cycle;Max_cycle;Signal;HPM_P1;HPM_P2
2023/12/15 00:01:38;;;;;;;;;;;;;;;17.48;68.24;100710.06;7390816;19;1227;-44
2023/12/15 00:04:06;;;;;;;;;;;;;;;17.82;67.30;100717.94;7390998;19;1540;-45
2023/12/15 00:06:37;;;;;;;;;;;;;;;18.08;66.64;100721.13;7392357;19;1195;-45
2023/12/15 00:09:05;;;;;;;;;;;;;;;17.85;66.91;100715.06;7391055;19;1499;-45
2023/12/15 00:11:34;;;;;;;;;;;;;;;17.65;67.49;100729.22;7390206;19;1195;-45
2023/12/15 00:14:02;;;;;;;;;;;;;;;17.54;67.72;100718.56;7390068;19;1853;-46
2023/12/15 00:16:30;;;;;;;;;;;;;;;17.44;68.28;100737.19;7392347;19;1373;-45
2023/12/15 00:18:59;;;;;;;;;;;;;;;17.42;68.35;100742.63;7392514;19;1299;-45
2023/12/15 00:21:27;;;;;;;;;;;;;;;17.35;68.55;100752.16;7392083;19;1797;-44
2023/12/15 00:23:58;;;;;;;;;;;;;;;17.73;67.21;100771.38;7391786;19;1588;-45
2023/12/15 00:26:26;;;;;;;;;;;;;;;18.01;66.62;100764.59;7391080;19;1854;-45
2023/12/15 00:28:54;;;;;;;;;;;;;;;18.00;66.38;100771.75;7392150;19;1481;-44
2023/12/15 00:31:23;;;;;;;;;;;;;;;17.73;66.98;100782.06;7391075;19;1217;-44
2023/12/15 00:33:51;;;;;;;;;;;;;;;17.55;67.72;100790.63;7389607;19;1867;-44
2023/12/15 00:36:19;;;;;;;;;;;;;;;17.50;67.75;100799.00;7391092;19;1169;-44
2023/12/15 00:38:48;;;;;;;;;;;;;;;17.41;67.72;100818.47;7390175;19;1207;-44
2023/12/15 00:41:19;;;;;;;;;;;;;;;17.30;68.07;100797.09;7391330;19;1183;-44
2023/12/15 00:43:47;;;;;;;;;;;;;;;17.55;67.72;100812.03;7390224;19;1536;-45
2023/12/15 00:46:15;;;;;;;;;;;;;;;17.88;66.73;100799.53;7389389;19;1200;-45
2023/12/15 00:48:44;;;;;;;;;;;;;;;17.99;66.39;100779.94;7387579;19;1192;-44
2023/12/15 00:51:12;;;;;;;;;;;;;;;17.74;66.88;100789.94;7387455;19;1270;-44
2023/12/15 00:53:40;;;;;;;;;;;;;;;17.57;67.51;100793.19;7390101;19;1870;-45
2023/12/15 00:56:09;;;;;;;;;;;;;;;17.41;67.78;100810.47;7376375;19;1278;-44
2023/12/15 00:58:40;;;;;;;;;;;;;;;17.36;68.08;100817.16;7390246;19;1872;-45
2023/12/15 01:01:09;;;;;;;;;;;;;;;17.32;68.09;100821.88;7390491;19;1560;-44
2023/12/15 01:03:37;;;;;;;;;;;;;;;17.27;67.97;100811.56;7389251;19;1187;-44
2023/12/15 01:06:05;;;;;;;;;;;;;;;17.67;67.01;100789.63;7389979;19;1173;-45
2023/12/15 01:08:34;;;;;;;;;;;;;;;18.06;66.00;100789.13;7390149;19;1451;-45
2023/12/15 01:11:02;;;;;;;;;;;;;;;17.99;66.12;100801.34;7395834;19;1219;-45
2023/12/15 01:13:30;;;;;;;;;;;;;;;17.70;66.73;100792.03;7397389;19;1455;-45
2023/12/15 01:16:01;;;;;;;;;;;;;;;17.54;67.04;100801.44;7394639;19;1873;-45
2023/12/15 01:18:30;;;;;;;;;;;;;;;17.46;67.38;100802.91;7397810;19;1167;-45
2023/12/15 01:20:58;;;;;;;;;;;;;;;17.41;67.39;100791.75;7393954;19;1436;-45
2023/12/15 01:23:26;;;;;;;;;;;;;;;17.28;68.00;100793.72;7397530;19;1443;-45
2023/12/15 01:25:54;;;;;;;;;;;;;;;17.62;66.89;100799.81;7396899;19;1554;-45
2023/12/15 01:28:23;;;;;;;;;;;;;;;18.01;66.06;100820.78;7397909;19;1157;-45
2023/12/15 01:30:51;;;;;;;;;;;;;;;17.95;65.92;100821.31;7396301;19;1437;-45
2023/12/15 01:33:22;;;;;;;;;;;;;;;17.72;66.46;100815.97;7394131;19;2409;-45
2023/12/15 01:35:51;;;;;;;;;;;;;;;17.50;67.17;100816.88;7393650;19;1852;-44
2023/12/15 01:38:19;;;;;;;;;;;;;;;17.41;67.40;100820.31;7396527;19;1183;-44
2023/12/15 01:40:47;;;;;;;;;;;;;;;17.37;67.55;100830.41;7397185;19;1231;-44
2023/12/15 01:43:16;;;;;;;;;;;;;;;17.22;67.72;100829.78;7396022;19;1175;-45
2023/12/15 01:45:44;;;;;;;;;;;;;;;17.45;67.27;100827.94;7395949;19;1191;-45
2023/12/15 01:48:13;;;;;;;;;;;;;;;17.78;66.25;100818.13;7396852;19;1406;-44
2023/12/15 01:50:44;;;;;;;;;;;;;;;18.04;65.50;100823.19;7395482;19;1180;-44
2023/12/15 01:53:12;;;;;;;;;;;;;;;17.78;66.33;100812.78;7396143;19;1729;-45
2023/12/15 01:55:41;;;;;;;;;;;;;;;17.55;66.76;100817.38;7378660;19;1855;-44
2023/12/15 01:58:11;;;;;;;;;;;;;;;17.46;67.12;100826.97;7395465;19;1359;-45
2023/12/15 02:00:40;;;;;;;;;;;;;;;17.38;67.22;100837.44;7395507;19;1455;-45
2023/12/15 02:03:08;;;;;;;;;;;;;;;17.28;67.37;100841.81;7395922;19;1202;-45
2023/12/15 02:05:36;;;;;;;;;;;;;;;17.37;67.39;100849.09;7394638;19;1402;-45
2023/12/15 02:08:07;;;;;;;;;;;;;;;17.73;66.54;100852.47;7396097;19;1207;-45
2023/12/15 02:10:39;;;;;;;;;;;;;;;18.07;65.45;100842.53;7394604;19;1493;-44
2023/12/15 02:13:08;;;;;;;;;;;;;;;17.84;65.91;100854.28;7392677;19;1808;-44
2023/12/15 02:15:36;;;;;;;;;;;;;;;17.60;66.56;100859.75;7393978;19;1864;-45
2023/12/15 02:18:04;;;;;;;;;;;;;;;17.49;66.93;100874.84;7394624;19;1167;-45
2023/12/15 02:20:33;;;;;;;;;;;;;;;17.35;67.27;100885.81;7394585;19;1514;-45
2023/12/15 02:23:04;;;;;;;;;;;;;;;17.26;67.43;100886.53;7394114;19;1584;-45
2023/12/15 02:25:32;;;;;;;;;;;;;;;17.27;67.83;100906.94;7395205;19;1560;-45
2023/12/15 02:28:00;;;;;;;;;;;;;;;17.63;66.47;100900.50;7395582;19;1373;-44
2023/12/15 02:30:29;;;;;;;;;;;;;;;18.00;65.60;100897.50;7395585;19;1770;-44
2023/12/15 02:32:57;;;;;;;;;;;;;;;17.79;66.28;100912.63;7394755;19;1954;-44
2023/12/15 02:35:25;;;;;;;;;;;;;;;17.81;66.01;100898.16;7393093;19;1845;-45
2023/12/15 02:37:54;;;;;;;;;;;;;;;18.92;63.18;100906.88;7394091;19;1395;-45
2023/12/15 02:40:25;;;;;;;;;;;;;;;19.65;61.17;100919.22;7394944;19;1863;-45
2023/12/15 02:42:53;;;;;;;;;;;;;;;19.60;61.36;100909.91;7393916;19;1497;-44
2023/12/15 02:45:21;;;;;;;;;;;;;;;19.71;60.89;100912.50;7394557;19;1414;-44
2023/12/15 02:47:50;;;;;;;;;;;;;;;19.21;62.18;100926.66;7394672;19;1492;-43
2023/12/15 02:50:18;;;;;;;;;;;;;;;19.16;62.54;100938.75;7393591;19;1271;-45
2023/12/15 02:52:46;;;;;;;;;;;;;;;19.39;61.65;100932.25;7393251;19;1536;-45
2023/12/15 02:55:14;;;;;;;;;;;;;;;19.65;61.37;100962.16;7392480;19;1853;-45
2023/12/15 02:57:45;;;;;;;;;;;;;;;19.60;61.30;100945.63;7378939;19;1364;-45
2023/12/15 03:00:14;;;;;;;;;;;;;;;19.66;60.76;100938.88;7393243;19;1874;-44
2023/12/15 03:02:43;;;;;;;;;;;;;;;19.69;60.87;100952.00;7392858;19;1459;-45
2023/12/15 03:05:11;;;;;;;;;;;;;;;19.63;61.05;100944.50;7393177;19;1202;-45
2023/12/15 03:07:40;;;;;;;;;;;;;;;19.64;60.84;100954.25;7393496;19;1179;-45
2023/12/15 03:10:08;;;;;;;;;;;;;;;19.66;60.71;100950.44;7393344;19;1618;-45
2023/12/15 03:12:37;;;;;;;;;;;;;;;19.74;60.75;100959.69;7392707;19;1930;-45
2023/12/15 03:15:08;;;;;;;;;;;;;;;19.78;60.84;100977.22;7392475;19;1847;-45
2023/12/15 03:17:36;;;;;;;;;;;;;;;19.77;60.65;100975.50;7392601;19;1184;-45
2023/12/15 03:20:06;;;;;;;;;;;;;;;19.77;60.72;100979.03;7393635;19;1302;-45
2023/12/15 03:22:34;;;;;;;;;;;;;;;19.80;60.75;100972.56;7395484;19;1347;-45
2023/12/15 03:25:03;;;;;;;;;;;;;;;19.69;60.77;100968.09;7394331;19;1329;-46
2023/12/15 03:27:31;;;;;;;;;;;;;;;19.84;60.44;100982.88;7393333;19;1121;-45
2023/12/15 03:29:59;;;;;;;;;;;;;;;19.76;60.66;100980.03;7393403;19;1536;-45
2023/12/15 03:32:30;;;;;;;;;;;;;;;19.79;60.48;100987.81;7394138;19;1365;-45
2023/12/15 03:34:59;;;;;;;;;;;;;;;19.86;60.26;101013.13;7392171;19;1847;-45
2023/12/15 03:37:27;;;;;;;;;;;;;;;19.78;60.54;101009.44;7395068;19;1171;-45
2023/12/15 03:39:55;;;;;;;;;;;;;;;19.84;60.48;100996.31;7393652;19;2392;-45
2023/12/15 03:42:24;;;;;;;;;;;;;;;19.88;60.29;101009.47;7394830;19;1276;-44
2023/12/15 03:44:52;;;;;;;;;;;;;;;19.90;60.26;101010.19;7394625;19;1356;-44
2023/12/15 03:47:21;;;;;;;;;;;;;;;19.93;60.32;100999.16;7395422;19;1362;-45
2023/12/15 03:49:52;;;;;;;;;;;;;;;19.92;60.11;101021.63;7394095;19;1227;-45
2023/12/15 03:52:20;;;;;;;;;;;;;;;20.03;60.11;101019.69;7394048;19;1550;-44
2023/12/15 03:54:49;;;;;;;;;;;;;;;19.93;60.08;101029.53;7395502;19;1868;-45
2023/12/15 03:57:17;;;;;;;;;;;;;;;19.97;59.83;101035.47;7377802;19;1792;-45
2023/12/15 03:59:45;;;;;;;;;;;;;;;19.89;60.17;101038.00;7391807;19;1378;-45
2023/12/15 04:02:15;;;;;;;;;;;;;;;19.15;62.16;101038.94;7391266;19;1163;-45
2023/12/15 04:04:44;;;;;;;;;;;;;;;18.64;63.43;101059.19;7392916;19;1132;-45
2023/12/15 04:07:15;;;;;;;;;;;;;;;18.29;64.19;101063.78;7391478;19;1406;-50
2023/12/15 04:09:44;;;;;;;;;;;;;;;18.34;64.32;101054.53;7392854;19;1145;-45
2023/12/15 04:12:12;;;;;;;;;;;;;;;18.68;63.51;101066.00;7391815;19;1528;-45
2023/12/15 04:14:40;;;;;;;;;;;;;;;19.03;62.49;101056.91;7392337;19;1839;-45
2023/12/15 04:17:08;;;;;;;;;;;;;;;19.23;61.93;101074.00;7392055;19;1554;-45
2023/12/15 04:19:37;;;;;;;;;;;;;;;19.22;61.81;101093.75;7390770;19;1301;-45
2023/12/15 04:22:05;;;;;;;;;;;;;;;19.25;61.92;101083.59;7391668;19;1459;-45
2023/12/15 04:24:36;;;;;;;;;;;;;;;19.27;61.78;101084.31;7391661;19;1200;-45
2023/12/15 04:27:04;;;;;;;;;;;;;;;19.25;61.87;101088.97;7392136;19;1178;-44
2023/12/15 04:29:33;;;;;;;;;;;;;;;19.19;61.97;101102.03;7391161;19;1386;-45
2023/12/15 04:32:01;;;;;;;;;;;;;;;19.24;61.83;101102.53;7390808;19;1641;-45
2023/12/15 04:34:30;;;;;;;;;;;;;;;19.20;61.80;101112.66;7391699;19;1397;-44
2023/12/15 04:36:58;;;;;;;;;;;;;;;19.20;61.82;101106.41;7389526;19;1859;-45
2023/12/15 04:39:26;;;;;;;;;;;;;;;19.33;61.55;101117.81;7391210;19;1537;-45
2023/12/15 04:41:57;;;;;;;;;;;;;;;19.34;61.58;101119.53;7390604;19;1481;-45
2023/12/15 04:44:26;;;;;;;;;;;;;;;19.44;61.13;101141.06;7388921;19;1369;-44
2023/12/15 04:46:55;;;;;;;;;;;;;;;19.38;61.30;101142.44;7390819;19;1384;-45
2023/12/15 04:49:24;;;;;;;;;;;;;;;19.47;60.97;101138.94;7389996;19;1483;-45
2023/12/15 04:51:52;;;;;;;;;;;;;;;19.03;62.27;101123.91;7389198;19;1406;-45
2023/12/15 04:54:20;;;;;;;;;;;;;;;18.54;63.18;101136.75;7389106;19;1426;-44
2023/12/15 04:56:48;;;;;;;;;;;;;;;18.16;63.33;101140.66;7371177;19;1847;-44
2023/12/15 04:59:19;;;;;;;;;;;;;;;18.52;62.38;101127.16;7390736;19;1370;-45
2023/12/15 05:01:48;;;;;;;;;;;;;;;19.04;60.81;101155.97;7390570;19;1497;-45
2023/12/15 05:04:16;;;;;;;;;;;;;;;19.27;60.07;101154.03;7389835;19;1199;-45
2023/12/15 05:06:44;;;;;;;;;;;;;;;18.80;61.34;101157.94;7390709;19;1430;-45
2023/12/15 05:09:13;;;;;;;;;;;;;;;18.44;62.45;101165.25;7386383;19;1095;-45
2023/12/15 05:11:42;;;;;;;;;;;;;;;18.25;62.99;101182.78;7388396;19;1401;-45
2023/12/15 05:14:10;;;;;;;;;;;;;;;18.51;62.73;101166.50;7389685;19;1300;-45
2023/12/15 05:16:41;;;;;;;;;;;;;;;18.85;62.19;101167.31;7385228;19;1841;-48
2023/12/15 05:19:10;;;;;;;;;;;;;;;19.05;61.60;101176.41;7387631;19;1191;-48
2023/12/15 05:21:38;;;;;;;;;;;;;;;19.21;61.00;101183.19;7390149;19;1225;-47
2023/12/15 05:24:06;;;;;;;;;;;;;;;19.23;60.95;101190.13;7388836;19;1556;-44
2023/12/15 05:26:35;;;;;;;;;;;;;;;19.17;60.97;101204.03;7387137;19;1480;-45
2023/12/15 05:29:03;;;;;;;;;;;;;;;19.17;61.15;101189.78;7387301;19;1313;-45
2023/12/15 05:31:31;;;;;;;;;;;;;;;19.26;60.93;101205.13;7390663;19;1042;-44
2023/12/15 05:34:02;;;;;;;;;;;;;;;19.20;60.78;101219.00;7388083;19;1279;-45
2023/12/15 05:36:30;;;;;;;;;;;;;;;19.26;60.68;101213.19;7388363;19;1841;-44
2023/12/15 05:38:59;;;;;;;;;;;;;;;19.25;60.76;101216.81;7388604;19;1161;-44
2023/12/15 05:41:27;;;;;;;;;;;;;;;19.24;60.59;101210.63;7390649;19;1412;-45
2023/12/15 05:43:56;;;;;;;;;;;;;;;19.39;60.04;101235.31;7390009;19;1513;-45
2023/12/15 05:46:24;;;;;;;;;;;;;;;19.39;59.91;101237.97;7387452;19;1323;-44
2023/12/15 05:48:52;;;;;;;;;;;;;;;19.36;60.05;101230.22;7389512;19;1473;-45
2023/12/15 05:51:23;;;;;;;;;;;;;;;19.47;60.01;101232.00;7389489;19;1533;-44
2023/12/15 05:53:51;;;;;;;;;;;;;;;19.44;60.27;101245.66;7388941;19;1508;-45
2023/12/15 05:56:20;;;;;;;;;;;;;;;19.40;60.08;101241.53;7375513;19;1852;-46
2023/12/15 05:58:49;;;;;;;;;;;;;;;19.34;59.86;101253.63;7396927;19;1531;-45
2023/12/15 06:01:17;;;;;;;;;;;;;;;18.94;61.12;101255.97;7397404;19;1516;-44
2023/12/15 06:03:45;;;;;;;;;;;;;;;18.54;62.33;101270.69;7395135;19;1102;-45
2023/12/15 06:06:14;;;;;;;;;;;;;;;18.22;63.52;101254.44;7395285;19;1171;-45
2023/12/15 06:08:45;;;;;;;;;;;;;;;18.04;63.67;101262.91;7393597;19;1556;-45
2023/12/15 06:11:13;;;;;;;;;;;;;;;17.95;64.09;101270.81;7394470;19;1164;-45
2023/12/15 06:13:42;;;;;;;;;;;;;;;17.83;64.04;101254.72;7396140;19;1157;-45
2023/12/15 06:16:10;;;;;;;;;;;;;;;17.79;64.10;101271.94;7395655;19;1841;-45
2023/12/15 06:18:39;;;;;;;;;;;;;;;18.37;62.62;101265.81;7395688;19;1474;-45
2023/12/15 06:21:07;;;;;;;;;;;;;;;18.94;61.04;101272.94;7392054;19;1448;-45
2023/12/15 06:23:35;;;;;;;;;;;;;;;18.78;61.38;101272.41;7392325;19;1596;-45
2023/12/15 06:26:07;;;;;;;;;;;;;;;18.38;62.30;101275.53;7392233;19;1227;-45
2023/12/15 06:28:35;;;;;;;;;;;;;;;18.10;63.11;101296.38;7392396;19;1188;-45
2023/12/15 06:31:03;;;;;;;;;;;;;;;17.83;63.47;101294.84;7391930;19;1171;-45
2023/12/15 06:33:31;;;;;;;;;;;;;;;17.82;63.76;101303.78;7393552;19;1452;-44
2023/12/15 06:36:00;;;;;;;;;;;;;;;18.20;62.85;101313.44;7393537;19;1859;-44
2023/12/15 06:38:28;;;;;;;;;;;;;;;18.64;61.54;101319.03;7392798;19;1713;-45
2023/12/15 06:40:56;;;;;;;;;;;;;;;18.72;60.57;101316.63;7389066;19;1587;-47
2023/12/15 06:43:25;;;;;;;;;;;;;;;18.92;59.89;101328.50;7392088;19;1157;-47
2023/12/15 06:45:54;;;;;;;;;;;;;;;19.04;59.76;101322.16;7395916;19;1598;-47
2023/12/15 06:48:22;;;;;;;;;;;;;;;18.69;60.88;101338.28;7395542;19;1137;-48
2023/12/15 06:50:50;;;;;;;;;;;;;;;18.27;61.86;101343.31;7393359;19;1550;-46
2023/12/15 06:53:19;;;;;;;;;;;;;;;18.06;62.55;101348.44;7393782;19;1571;-47
2023/12/15 06:55:47;;;;;;;;;;;;;;;17.94;62.72;101362.75;7392703;19;1877;-47
2023/12/15 06:58:16;;;;;;;;;;;;;;;17.99;63.06;101371.28;7379628;19;1489;-47
2023/12/15 07:00:50;;;;;;;;;;;;;;;18.35;62.01;101372.19;7056255;19;10000583;-44
2023/12/15 07:03:19;;;;;;;;;;;;;;;18.21;60.92;101275.00;6869082;19;10000744;-44
2023/12/15 07:05:47;;;;;;;;;;;;;;;18.96;60.57;101378.19;7386621;19;1861;-45
2023/12/15 07:08:15;;;;;;;;;;;;;;;18.86;60.57;101390.56;7383899;19;1674;-45
2023/12/15 07:10:44;;;;;;;;;;;;;;;18.40;61.60;101402.13;7386329;19;1568;-45
2023/12/15 07:13:12;;;;;;;;;;;;;;;18.12;62.40;101390.81;7385139;19;1386;-49
2023/12/15 07:15:40;;;;;;;;;;;;;;;17.89;62.99;101393.38;7379982;19;1847;-45
2023/12/15 07:18:11;;;;;;;;;;;;;;;17.84;63.09;101405.38;7383020;19;1394;-45
2023/12/15 07:20:40;;;;;;;;;;;;;;;18.16;62.47;101416.38;7386328;19;1577;-45
2023/12/15 07:23:08;;;;;;;;;;;;;;;18.69;61.03;101419.50;7385715;19;1567;-45
2023/12/15 07:25:37;;;;;;;;;;;;;;;18.95;60.05;101422.03;7385493;19;1554;-44
2023/12/15 07:28:06;;;;;;;;;;;;;;;18.84;60.54;101416.66;7386295;19;1520;-45
2023/12/15 07:30:34;;;;;;;;;;;;;;;18.40;61.49;101424.41;7382395;19;1654;-45
2023/12/15 07:33:02;;;;;;;;;;;;;;;18.10;62.40;101422.19;7384872;19;1516;-45
2023/12/15 07:35:33;;;;;;;;;;;;;;;17.89;62.91;101436.19;7386077;19;1393;-44
2023/12/15 07:38:01;;;;;;;;;;;;;;;17.86;62.83;101431.03;7382755;19;1863;-45
2023/12/15 07:40:30;;;;;;;;;;;;;;;18.22;62.09;101441.84;7385590;19;1285;-45
2023/12/15 07:42:58;;;;;;;;;;;;;;;18.71;60.88;101439.97;7374607;19;1502;-45
2023/12/15 07:45:26;;;;;;;;;;;;;;;18.86;60.14;101426.28;7385878;19;1495;-45
2023/12/15 07:47:56;;;;;;;;;;;;;;;18.49;61.21;101433.56;7385843;19;1622;-44
2023/12/15 07:50:24;;;;;;;;;;;;;;;18.13;62.18;101434.50;7391065;19;1200;-46
2023/12/15 07:52:55;;;;;;;;;;;;;;;17.98;62.77;101439.16;7393731;19;1610;-45
2023/12/15 07:55:24;;;;;;;;;;;;;;;17.87;63.35;101464.88;7392314;19;1501;-45
2023/12/15 07:57:52;;;;;;;;;;;;;;;18.17;62.54;101452.91;7376353;19;1915;-44
2023/12/15 08:00:21;;;;;;;;;;;;;;;18.61;61.43;101459.41;7391223;19;1491;-45
2023/12/15 08:02:49;;;;;;;;;;;;;;;18.77;60.79;101479.69;7392445;19;1117;-44
2023/12/15 08:05:18;;;;;;;;;;;;;;;18.42;61.83;101475.16;7391299;19;1097;-45
2023/12/15 08:07:46;;;;;;;;;;;;;;;18.13;62.68;101483.53;7391350;19;2001;-45
2023/12/15 08:10:17;;;;;;;;;;;;;;;17.95;63.27;101479.53;7389324;19;1232;-45
2023/12/15 08:12:45;;;;;;;;;;;;;;;17.81;63.57;101484.00;7391025;19;1571;-45
2023/12/15 08:15:13;;;;;;;;;;;;;;;18.15;62.69;101484.28;7391117;19;1259;-45
2023/12/15 08:17:42;;;;;;;;;;;;;;;18.63;61.41;101478.06;7387152;19;1849;-44
2023/12/15 08:20:11;;;;;;;;;;;;;;;18.84;60.92;101475.59;7388259;19;1554;-45
2023/12/15 08:22:39;;;;;;;;;;;;;;;18.96;60.26;101477.38;7389232;19;1133;-45
2023/12/15 08:25:08;;;;;;;;;;;;;;;19.03;60.11;101499.19;7390941;19;1046;-45
2023/12/15 08:27:40;;;;;;;;;;;;;;;19.00;60.06;101492.22;7386089;19;1380;-45
2023/12/15 08:30:09;;;;;;;;;;;;;;;18.51;61.44;101498.59;7390905;19;2121;-45
2023/12/15 08:32:38;;;;;;;;;;;;;;;18.21;62.29;101485.66;7390357;19;1569;-45
2023/12/15 08:35:07;;;;;;;;;;;;;;;17.99;62.53;101505.09;7391406;19;1204;-45
2023/12/15 08:37:35;;;;;;;;;;;;;;;17.81;63.37;101502.75;7387810;19;1882;-45
2023/12/15 08:40:04;;;;;;;;;;;;;;;18.12;62.63;101495.19;7389421;19;1469;-45
2023/12/15 08:42:32;;;;;;;;;;;;;;;18.58;61.31;101497.16;7389743;19;1535;-45
2023/12/15 08:45:03;;;;;;;;;;;;;;;18.80;60.80;101491.06;7389645;19;1117;-45
2023/12/15 08:47:31;;;;;;;;;;;;;;;18.89;60.38;101492.19;7391100;19;1086;-45
2023/12/15 08:49:59;;;;;;;;;;;;;;;18.93;60.46;101506.22;7390330;19;1832;-45
2023/12/15 08:52:28;;;;;;;;;;;;;;;18.95;60.29;101504.28;7390369;19;1551;-45
2023/12/15 08:54:56;;;;;;;;;;;;;;;18.58;61.30;101513.25;7390064;19;1535;-45
2023/12/15 08:57:25;;;;;;;;;;;;;;;18.26;62.13;101535.22;7374927;19;1859;-44
2023/12/15 08:59:53;;;;;;;;;;;;;;;18.06;63.00;101527.75;7389796;19;1219;-45
2023/12/15 09:02:24;;;;;;;;;;;;;;;17.87;63.20;101530.91;7389878;19;1606;-45
2023/12/15 09:04:52;;;;;;;;;;;;;;;18.01;63.11;101529.94;7387930;19;1192;-45
2023/12/15 09:07:20;;;;;;;;;;;;;;;18.34;62.35;101531.09;7387733;19;1480;-45
2023/12/15 09:09:49;;;;;;;;;;;;;;;18.79;61.04;101523.31;7390043;19;1081;-45
2023/12/15 09:12:17;;;;;;;;;;;;;;;19.01;60.33;101525.25;7387708;19;1566;-45
2023/12/15 09:14:47;;;;;;;;;;;;;;;18.95;60.34;101513.16;7389296;19;1432;-45
2023/12/15 09:17:15;;;;;;;;;;;;;;;18.56;61.37;101528.56;7388771;19;1853;-45
2023/12/15 09:19:46;;;;;;;;;;;;;;;18.21;62.36;101547.22;7389656;19;1400;-45
2023/12/15 09:22:14;;;;;;;;;;;;;;;17.98;62.95;101546.19;7389290;19;1582;-45
2023/12/15 09:24:43;;;;;;;;;;;;;;;17.84;63.59;101553.38;7388367;19;1475;-46
2023/12/15 09:27:11;;;;;;;;;;;;;;;17.97;63.19;101556.06;7389217;19;1172;-45
2023/12/15 09:29:39;;;;;;;;;;;;;;;18.01;61.96;101497.81;7388484;19;1503;-45
2023/12/15 09:32:08;;;;;;;;;;;;;;;18.74;60.84;101550.47;7391232;19;1547;-44
2023/12/15 09:34:36;;;;;;;;;;;;;;;19.00;60.27;101571.75;7393356;19;1795;-45
2023/12/15 09:37:07;;;;;;;;;;;;;;;18.81;60.81;101591.06;7395213;19;1857;-45
2023/12/15 09:39:36;;;;;;;;;;;;;;;18.38;61.79;101583.47;7394582;19;1208;-45
2023/12/15 09:42:04;;;;;;;;;;;;;;;18.09;62.46;101592.63;7396428;19;1607;-45
2023/12/15 09:44:33;;;;;;;;;;;;;;;17.91;63.17;101585.06;7393327;19;1953;-45
2023/12/15 09:47:01;;;;;;;;;;;;;;;17.81;63.42;101592.84;7393570;19;1427;-45
2023/12/15 09:49:30;;;;;;;;;;;;;;;18.22;62.39;101581.94;7394293;19;1222;-45
2023/12/15 09:51:59;;;;;;;;;;;;;;;18.60;61.22;101572.91;7395746;19;1098;-45
2023/12/15 09:54:31;;;;;;;;;;;;;;;18.96;60.43;101584.56;7394177;19;1956;-44
2023/12/15 09:56:59;;;;;;;;;;;;;;;18.92;60.30;101575.06;7395027;19;1868;-45
2023/12/15 09:59:27;;;;;;;;;;;;;;;18.51;61.26;101578.94;7379421;19;1349;-45
2023/12/15 10:01:56;;;;;;;;;;;;;;;18.23;62.43;101602.34;7394460;19;1258;-46
2023/12/15 10:04:24;;;;;;;;;;;;;;;17.95;62.88;101599.94;7392477;19;1304;-45
2023/12/15 10:06:53;;;;;;;;;;;;;;;17.81;63.46;101603.56;7394632;19;1524;-45
2023/12/15 10:09:21;;;;;;;;;;;;;;;18.05;62.84;101625.09;7393276;19;1166;-45
2023/12/15 10:11:52;;;;;;;;;;;;;;;18.45;61.75;101598.13;7393713;19;1359;-45
2023/12/15 10:14:20;;;;;;;;;;;;;;;18.79;60.76;101611.72;7394436;19;1466;-44
2023/12/15 10:16:48;;;;;;;;;;;;;;;18.79;60.58;101622.44;7390259;19;1818;-45
2023/12/15 10:19:17;;;;;;;;;;;;;;;18.83;60.30;101621.28;7394465;19;1666;-46
2023/12/15 10:21:45;;;;;;;;;;;;;;;18.83;60.29;101613.25;7391294;19;1300;-45
2023/12/15 10:24:20;;;;;;;;;;;;;;;18.94;60.10;101616.00;7391748;19;1343;-45
2023/12/15 10:26:49;;;;;;;;;;;;;;;18.97;59.92;101626.47;7392688;19;1492;-45
2023/12/15 10:29:21;;;;;;;;;;;;;;;18.98;59.83;101616.59;7392207;19;1142;-45
2023/12/15 10:31:50;;;;;;;;;;;;;;;18.61;60.73;101614.78;7391938;19;1603;-45
2023/12/15 10:34:18;;;;;;;;;;;;;;;18.26;61.76;101615.53;7391230;19;1927;-45
2023/12/15 10:36:47;;;;;;;;;;;;;;;18.06;62.56;101624.13;7393271;19;1849;-45
2023/12/15 10:39:17;;;;;;;;;;;;;;;17.83;63.11;101639.09;7392988;19;1287;-45
2023/12/15 10:41:45;;;;;;;;;;;;;;;17.89;63.20;101618.13;7392892;19;1304;-47
2023/12/15 10:44:14;;;;;;;;;;;;;;;18.34;62.07;101622.16;7389947;19;1448;-45
2023/12/15 10:46:47;;;;;;;;;;;;;;;18.74;60.66;101636.19;7392664;19;1307;-45
2023/12/15 10:49:16;;;;;;;;;;;;;;;18.88;60.21;101638.75;7393205;19;1841;-45
2023/12/15 10:51:44;;;;;;;;;;;;;;;18.98;60.09;101646.97;7392087;19;1542;-45
2023/12/15 10:54:12;;;;;;;;;;;;;;;18.90;60.37;101645.78;7390582;19;1847;-47
2023/12/15 10:56:41;;;;;;;;;;;;;;;18.46;61.54;101658.75;7391186;19;1560;-47
2023/12/15 10:59:10;;;;;;;;;;;;;;;18.08;62.61;101648.94;7375841;19;1899;-47
2023/12/15 11:01:40;;;;;;;;;;;;;;;17.94;63.14;101665.13;7390888;19;1154;-47
2023/12/15 11:04:20;;;;;;;;;;;;;;;17.80;63.66;101672.25;7391659;19;1548;-47
2023/12/15 11:06:50;;;;;;;;;;;;;;;17.72;63.88;101685.28;7394162;19;2027;-47
2023/12/15 11:09:28;;;;;;;;;;;;;;;17.72;64.01;101682.63;7393965;19;1531;-47
2023/12/15 11:12:11;;;;;;;;;;;;;;;17.71;64.05;101678.25;7392009;19;1373;-45
2023/12/15 11:14:40;;;;;;;;;;;;;;;17.61;64.48;101661.13;7390077;19;1287;-45
2023/12/15 11:17:09;;;;;;;;;;;;;;;18.20;62.61;101696.25;7394902;19;1839;-44
2023/12/15 11:19:43;;;;;;;;;;;;;;;18.79;60.83;101665.31;7395918;19;1499;-45
2023/12/15 11:22:13;;;;;;;;;;;;;;;18.85;60.61;101670.25;7395755;19;1271;-44
2023/12/15 11:24:42;;;;;;;;;;;;;;;18.63;61.03;101682.50;7396662;19;1531;-45
2023/12/15 11:27:10;;;;;;;;;;;;;;;18.21;62.24;101687.28;7396113;19;1002;-45
2023/12/15 11:29:38;;;;;;;;;;;;;;;17.89;62.98;101679.69;7391954;19;1666;-45
2023/12/15 11:32:23;;;;;;;;;;;;;;;17.73;63.43;101702.22;7391207;19;1534;-45
2023/12/15 11:34:54;;;;;;;;;;;;;;;18.16;62.38;101691.25;7378703;19;2322;-44
2023/12/15 11:37:22;;;;;;;;;;;;;;;18.49;61.43;101688.00;7387749;19;1855;-45
2023/12/15 11:39:51;;;;;;;;;;;;;;;18.85;60.39;101695.22;7390851;19;2035;-45
2023/12/15 11:42:21;;;;;;;;;;;;;;;18.86;60.17;101693.41;7389294;19;1555;-45
2023/12/15 11:44:49;;;;;;;;;;;;;;;18.94;59.81;101696.41;7390088;19;1244;-44
2023/12/15 11:47:17;;;;;;;;;;;;;;;18.92;59.98;101706.38;7390794;19;1500;-43
2023/12/15 11:49:46;;;;;;;;;;;;;;;19.11;59.70;101696.97;7390000;19;1191;-43
2023/12/15 11:52:17;;;;;;;;;;;;;;;19.10;59.44;101708.66;7388652;19;1448;-43
2023/12/15 11:54:45;;;;;;;;;;;;;;;19.05;59.46;101699.13;7386757;19;1165;-43
2023/12/15 11:57:13;;;;;;;;;;;;;;;19.01;59.80;101726.28;7391132;19;1847;-43
2023/12/15 11:59:44;;;;;;;;;;;;;;;19.04;59.65;101713.53;7376495;19;1383;-44
2023/12/15 12:02:17;;;;;;;;;;;;;;;19.05;60.19;101704.50;7389263;19;1216;-43
2023/12/15 12:04:46;;;;;;;;;;;;;;;19.19;59.71;101718.72;7387962;19;1399;-43
2023/12/15 12:07:17;;;;;;;;;;;;;;;19.31;59.58;101703.53;7389980;19;1510;-43
2023/12/15 12:09:46;;;;;;;;;;;;;;;19.38;59.73;101712.84;7390366;19;1289;-44
2023/12/15 12:12:14;;;;;;;;;;;;;;;19.47;59.62;101723.72;7387297;19;1389;-44
2023/12/15 12:14:43;;;;;;;;;;;;;;;19.43;59.87;101726.75;7388227;19;1171;-43
2023/12/15 12:17:12;;;;;;;;;;;;;;;19.48;59.66;101730.81;7388391;19;1399;-44
2023/12/15 12:19:42;;;;;;;;;;;;;;;19.57;59.71;101731.94;7384998;19;1848;-43
2023/12/15 12:22:12;;;;;;;;;;;;;;;19.55;59.89;101733.03;7385994;19;1310;-43
2023/12/15 12:24:43;;;;;;;;;;;;;;;19.15;60.86;101726.13;7386359;19;1295;-44
2023/12/15 12:27:11;;;;;;;;;;;;;;;18.68;62.05;101742.00;7387819;19;1024;-44
2023/12/15 12:29:40;;;;;;;;;;;;;;;18.34;63.02;101756.03;7388780;19;1510;-44
2023/12/15 12:32:09;;;;;;;;;;;;;;;18.40;63.21;101750.25;7387382;19;1208;-44
2023/12/15 12:34:37;;;;;;;;;;;;;;;18.69;62.32;101746.38;7387999;19;1246;-44
2023/12/15 12:37:07;;;;;;;;;;;;;;;18.99;61.80;101761.22;7388325;19;1195;-43
2023/12/15 12:39:35;;;;;;;;;;;;;;;19.19;60.99;101767.81;7385503;19;1854;-44
2023/12/15 12:42:08;;;;;;;;;;;;;;;19.32;60.06;101757.06;7387441;19;1331;-44
2023/12/15 12:44:37;;;;;;;;;;;;;;;19.44;59.72;101748.09;7386865;19;1553;-43
2023/12/15 12:47:05;;;;;;;;;;;;;;;19.51;59.69;101764.59;7384800;19;1614;-43
2023/12/15 12:49:33;;;;;;;;;;;;;;;19.42;59.93;101750.03;7385367;19;1497;-43
2023/12/15 12:52:02;;;;;;;;;;;;;;;19.37;59.83;101757.56;7387954;19;1077;-43
2023/12/15 12:54:30;;;;;;;;;;;;;;;19.52;59.48;101766.31;7390370;19;1261;-44